Time;durP1;ratioP1;P1;durP2;ratioP2;P2;SDS_P1;SDS_P2;PMS_P1;PMS_P2;Temp;Humidity;BMP_temperature;BMP_pressure;BME280_temperature;BME280_humidity;BME280_pressure;Samples;Min_cycle;Max_cycle;Signal;HPM_P1;HPM_P2
2022/12/10 00:00:05;;;;;;;16.87;11.83;;;;;;;-145.23;100.00;58621.06;5013067;28;20319;-53
2022/12/10 00:02:32;;;;;;;14.43;10.97;;;;;;;-145.23;100.00;58621.06;5013174;28;20323;-53
2022/12/10 00:04:58;;;;;;;16.00;10.93;;;;;;;-145.23;100.00;58621.06;5008189;28;20256;-53
2022/12/10 00:07:25;;;;;;;17.13;11.73;;;;;;;-145.23;100.00;58621.06;5009031;28;20320;-53
2022/12/10 00:09:53;;;;;;;14.13;9.87;;;;;;;-145.23;100.00;58621.06;5000056;28;20327;-52
2022/12/10 00:12:19;;;;;;;17.03;10.87;;;;;;;-145.23;100.00;58621.06;5003085;28;20268;-53
2022/12/10 00:14:46;;;;;;;17.43;11.47;;;;;;;-145.23;100.00;58621.06;5007730;28;20251;-54
2022/12/10 00:17:12;;;;;;;18.87;10.67;;;;;;;-145.23;100.00;58621.06;5006178;28;20345;-54
2022/12/10 00:19:39;;;;;;;15.57;11.07;;;;;;;-145.23;100.00;58621.06;5008091;28;20311;-53
2022/12/10 00:22:05;;;;;;;13.20;10.37;;;;;;;-145.23;100.00;58621.06;5004617;28;20239;-53
2022/12/10 00:24:32;;;;;;;17.43;11.30;;;;;;;-145.23;100.00;58621.06;5007680;28;20678;-53
2022/12/10 00:27:00;;;;;;;17.13;11.23;;;;;;;-145.23;100.00;58621.06;5005276;28;20224;-53
2022/12/10 00:29:27;;;;;;;19.20;12.57;;;;;;;-145.23;100.00;58621.06;5007267;28;20233;-53
2022/12/10 00:31:53;;;;;;;15.70;11.13;;;;;;;-145.23;100.00;58621.06;5009116;28;20323;-53
2022/12/10 00:34:20;;;;;;;15.37;10.57;;;;;;;-145.23;100.00;58621.06;5005116;28;20251;-53
2022/12/10 00:36:48;;;;;;;11.80;9.40;;;;;;;-145.23;100.00;58621.06;5007440;28;20228;-52
2022/12/10 00:39:16;;;;;;;14.43;10.33;;;;;;;-145.23;100.00;58621.06;5008176;28;20774;-53
2022/12/10 00:41:43;;;;;;;16.07;10.30;;;;;;;-145.23;100.00;58621.06;5004853;28;20774;-53
2022/12/10 00:44:11;;;;;;;16.47;11.20;;;;;;;-145.23;100.00;58621.06;4998811;28;20232;-53
2022/12/10 00:46:38;;;;;;;13.83;9.90;;;;;;;-145.23;100.00;58621.06;5004690;28;20316;-53
2022/12/10 00:49:05;;;;;;;14.57;10.20;;;;;;;-145.23;100.00;58621.06;5006734;28;20236;-53
2022/12/10 00:51:32;;;;;;;14.00;10.43;;;;;;;-145.23;100.00;58621.06;5005003;28;20249;-53
2022/12/10 00:53:59;;;;;;;15.63;10.93;;;;;;;-145.23;100.00;58621.06;5005774;28;20929;-54
2022/12/10 00:56:27;;;;;;;13.43;10.47;;;;;;;-145.23;100.00;58621.06;5007449;28;20311;-53
2022/12/10 00:58:54;;;;;;;12.60;9.70;;;;;;;-145.23;100.00;58621.06;5020686;28;20228;-54
2022/12/10 01:01:24;;;;;;;16.53;10.77;;;;;;;-145.23;100.00;58621.06;5026324;28;20227;-53
2022/12/10 01:03:52;;;;;;;16.57;10.20;;;;;;;-145.23;100.00;58621.06;5022777;28;20249;-57
2022/12/10 01:06:22;;;;;;;16.10;10.40;;;;;;;-145.23;100.00;58621.06;5025939;28;20242;-53
2022/12/10 01:08:50;;;;;;;15.53;10.87;;;;;;;-145.23;100.00;58621.06;5021663;28;20228;-53
2022/12/10 01:11:18;;;;;;;12.80;10.10;;;;;;;-145.23;100.00;58621.06;5028327;28;21192;-52
2022/12/10 01:13:45;;;;;;;15.23;11.27;;;;;;;-145.23;100.00;58621.06;5017583;28;21022;-53
2022/12/10 01:16:13;;;;;;;13.23;9.37;;;;;;;-145.23;100.00;58621.06;5026784;28;20324;-54
2022/12/10 01:18:42;;;;;;;13.13;9.90;;;;;;;-145.23;100.00;58621.06;5027560;28;20235;-53
2022/12/10 01:21:11;;;;;;;14.90;11.10;;;;;;;-145.23;100.00;58621.06;5028020;28;20229;-53
2022/12/10 01:23:40;;;;;;;13.67;10.27;;;;;;;-145.23;100.00;58621.06;5025693;28;20331;-54
2022/12/10 01:26:08;;;;;;;14.57;10.07;;;;;;;-145.23;100.00;58621.06;5023040;28;20964;-53
2022/12/10 01:28:36;;;;;;;15.13;10.93;;;;;;;-145.23;100.00;58621.06;5023325;28;20231;-53
2022/12/10 01:31:04;;;;;;;13.77;10.03;;;;;;;-145.23;100.00;58621.06;5026434;28;20812;-53
2022/12/10 01:33:31;;;;;;;13.37;9.63;;;;;;;-145.23;100.00;58621.06;5026075;28;20254;-53
2022/12/10 01:36:02;;;;;;;12.70;9.90;;;;;;;-145.23;100.00;58621.06;5020637;28;20329;-56
2022/12/10 01:38:29;;;;;;;15.27;8.67;;;;;;;-145.23;100.00;58621.06;5025619;28;20267;-53
2022/12/10 01:40:56;;;;;;;16.57;10.60;;;;;;;-145.23;100.00;58621.06;5027142;28;20771;-54
2022/12/10 01:43:22;;;;;;;13.37;9.23;;;;;;;-145.23;100.00;58621.06;5025565;28;20309;-53
2022/12/10 01:45:49;;;;;;;13.17;9.37;;;;;;;-145.23;100.00;58621.06;5024517;28;20352;-54
2022/12/10 01:48:16;;;;;;;14.20;10.30;;;;;;;-145.23;100.00;58621.06;5025980;28;20315;-53
2022/12/10 01:50:42;;;;;;;15.87;10.10;;;;;;;-145.23;100.00;58621.06;5023133;28;20309;-52
2022/12/10 01:53:10;;;;;;;12.87;10.43;;;;;;;-145.23;100.00;58621.06;5019362;28;20262;-53
2022/12/10 01:55:47;;;;;;;15.30;10.20;;;;;;;-145.23;100.00;58621.06;5022121;28;20603;-52
2022/12/10 01:58:14;;;;;;;12.73;10.20;;;;;;;-145.23;100.00;58621.06;5023050;28;20235;-52
2022/12/10 02:00:46;;;;;;;12.67;10.37;;;;;;;-145.23;100.00;58621.06;5020254;28;20353;-53
2022/12/10 02:03:15;;;;;;;14.83;9.97;;;;;;;-145.23;100.00;58621.06;5021095;28;20288;-53
2022/12/10 02:05:45;;;;;;;16.57;10.67;;;;;;;-145.23;100.00;58621.06;5023056;28;20237;-53
2022/12/10 02:08:20;;;;;;;14.63;10.47;;;;;;;-145.23;100.00;58621.06;5008903;28;20318;-54
2022/12/10 02:10:59;;;;;;;13.63;10.10;;;;;;;-145.23;100.00;58621.06;5009640;28;21971;-54
2022/12/10 02:13:30;;;;;;;13.53;8.50;;;;;;;-145.23;100.00;58621.06;5011687;28;20243;-53
2022/12/10 02:16:02;;;;;;;12.37;9.10;;;;;;;-145.23;100.00;58621.06;5009552;28;20224;-52
2022/12/10 02:18:33;;;;;;;14.27;9.23;;;;;;;-145.23;100.00;58621.06;5014704;28;20277;-53
2022/12/10 02:21:03;;;;;;;12.23;9.37;;;;;;;-145.23;100.00;58621.06;4996860;28;20323;-53
2022/12/10 02:23:36;;;;;;;13.27;10.00;;;;;;;-145.23;100.00;58621.06;5005120;28;20243;-53
2022/12/10 02:26:07;;;;;;;13.53;10.00;;;;;;;-145.23;100.00;58621.06;4999420;28;20232;-53
2022/12/10 02:28:39;;;;;;;16.97;10.40;;;;;;;-145.23;100.00;58621.06;4998255;28;20243;-53
2022/12/10 02:31:09;;;;;;;14.43;10.47;;;;;;;-145.23;100.00;58621.06;5003025;28;20290;-52
2022/12/10 02:33:39;;;;;;;14.63;9.80;;;;;;;-145.23;100.00;58621.06;5001590;28;20239;-53
2022/12/10 02:36:07;;;;;;;13.60;9.50;;;;;;;-145.23;100.00;58621.06;5004185;28;20232;-54
2022/12/10 02:38:37;;;;;;;13.13;10.10;;;;;;;-145.23;100.00;58621.06;4997874;28;20235;-53
2022/12/10 02:41:07;;;;;;;13.57;10.67;;;;;;;-145.23;100.00;58621.06;5002867;28;20412;-52
2022/12/10 02:43:35;;;;;;;16.97;11.30;;;;;;;-145.23;100.00;58621.06;5003992;28;20326;-53
2022/12/10 02:46:04;;;;;;;15.10;11.47;;;;;;;-145.23;100.00;58621.06;5003202;28;20231;-53
2022/12/10 02:48:34;;;;;;;15.17;11.23;;;;;;;-145.23;100.00;58621.06;5002256;28;20236;-53
2022/12/10 02:51:01;;;;;;;18.20;11.83;;;;;;;-145.23;100.00;58621.06;5003893;28;20737;-53
2022/12/10 02:53:28;;;;;;;15.83;11.03;;;;;;;-145.23;100.00;58621.06;5002368;28;20251;-53
2022/12/10 02:56:09;;;;;;;18.73;11.40;;;;;;;-145.23;100.00;58621.06;5004117;28;20720;-53
2022/12/10 02:58:41;;;;;;;16.17;10.97;;;;;;;-145.23;100.00;58621.06;5004975;28;20263;-53
2022/12/10 03:01:11;;;;;;;16.90;11.80;;;;;;;-145.23;100.00;58621.06;5003654;28;20232;-53
2022/12/10 03:03:44;;;;;;;14.87;10.53;;;;;;;-145.23;100.00;58621.06;5002972;28;20238;-53
2022/12/10 03:06:16;;;;;;;17.00;11.27;;;;;;;-145.23;100.00;58621.06;5007282;28;20231;-54
2022/12/10 03:08:47;;;;;;;15.20;11.47;;;;;;;-145.23;100.00;58621.06;5007399;28;20663;-53
2022/12/10 03:11:15;;;;;;;17.17;11.27;;;;;;;-145.23;100.00;58621.06;5004882;28;20239;-53
2022/12/10 03:13:49;;;;;;;17.77;10.97;;;;;;;-145.23;100.00;58621.06;5005740;28;20259;-53
2022/12/10 03:16:18;;;;;;;14.50;11.90;;;;;;;-145.23;100.00;58621.06;5016565;28;20778;-53
2022/12/10 03:18:48;;;;;;;14.03;11.40;;;;;;;-145.23;100.00;58621.06;5005944;28;20870;-53
2022/12/10 03:21:16;;;;;;;15.83;10.37;;;;;;;-145.23;100.00;58621.06;5001286;28;20236;-53
2022/12/10 03:23:47;;;;;;;15.00;11.27;;;;;;;-145.23;100.00;58621.06;5005552;28;20240;-53
2022/12/10 03:26:15;;;;;;;16.60;12.27;;;;;;;-145.23;100.00;58621.06;5005392;28;20628;-54
2022/12/10 03:28:46;;;;;;;18.73;11.87;;;;;;;-145.23;100.00;58621.06;5006639;28;20240;-54
2022/12/10 03:31:14;;;;;;;15.70;11.47;;;;;;;-145.23;100.00;58621.06;4998335;28;20855;-53
2022/12/10 03:33:41;;;;;;;21.40;13.00;;;;;;;-145.23;100.00;58621.06;5002462;28;20315;-53
2022/12/10 03:36:11;;;;;;;19.37;10.60;;;;;;;-145.23;100.00;58621.06;5005815;28;20608;-53
2022/12/10 03:38:39;;;;;;;15.50;11.50;;;;;;;-145.23;100.00;58621.06;5005430;28;20319;-54
2022/12/10 03:41:06;;;;;;;13.77;11.73;;;;;;;-145.23;100.00;58621.06;5004237;28;20618;-53
2022/12/10 03:43:33;;;;;;;15.23;10.97;;;;;;;-145.23;100.00;58621.06;5007974;28;20637;-53
2022/12/10 03:46:00;;;;;;;13.47;10.37;;;;;;;-145.23;100.00;58621.06;5007416;28;20238;-53
2022/12/10 03:48:27;;;;;;;15.03;12.07;;;;;;;-145.23;100.00;58621.06;5008212;28;20236;-53
2022/12/10 03:50:54;;;;;;;15.17;11.20;;;;;;;-145.23;100.00;58621.06;5003008;28;20237;-52
2022/12/10 03:53:22;;;;;;;16.53;11.10;;;;;;;-145.23;100.00;58621.06;4999036;28;20660;-53
2022/12/10 03:55:49;;;;;;;15.60;11.00;;;;;;;-145.23;100.00;58621.06;5013006;28;20233;-55
2022/12/10 03:58:16;;;;;;;17.53;11.00;;;;;;;-145.23;100.00;58621.06;5025150;28;20226;-54
2022/12/10 04:00:43;;;;;;;17.33;11.50;;;;;;;-145.23;100.00;58621.06;5023180;28;20235;-53
2022/12/10 04:03:10;;;;;;;14.77;10.60;;;;;;;-145.23;100.00;58621.06;5018907;28;20262;-53
2022/12/10 04:05:38;;;;;;;12.87;9.90;;;;;;;-145.23;100.00;58621.06;5028278;28;20231;-57
2022/12/10 04:08:05;;;;;;;16.67;12.17;;;;;;;-145.23;100.00;58621.06;5028134;28;20226;-55
2022/12/10 04:10:37;;;;;;;16.07;11.47;;;;;;;-145.23;100.00;58621.06;5036139;28;20288;-53
2022/12/10 04:18:31;;;;;;;14.23;11.67;;;;;;;-145.23;100.00;58621.06;5013871;28;20231;-54
2022/12/10 04:29:12;;;;;;;17.30;11.63;;;;;;;-145.23;100.00;58621.06;5025413;28;20254;-53
2022/12/10 04:31:40;;;;;;;16.73;10.83;;;;;;;-145.23;100.00;58621.06;5030179;28;20737;-53
2022/12/10 04:34:07;;;;;;;14.97;11.90;;;;;;;-145.23;100.00;58621.06;5027182;28;20337;-54
2022/12/10 04:36:34;;;;;;;17.07;12.13;;;;;;;-145.23;100.00;58621.06;5026962;28;20249;-52
2022/12/10 04:39:01;;;;;;;17.17;11.90;;;;;;;-145.23;100.00;58621.06;5025493;28;20235;-53
2022/12/10 04:41:29;;;;;;;15.80;11.77;;;;;;;-145.23;100.00;58621.06;5025044;28;20324;-56
2022/12/10 04:43:56;;;;;;;15.30;11.87;;;;;;;-145.23;100.00;58621.06;5025839;28;20690;-54
2022/12/10 04:46:23;;;;;;;17.77;12.33;;;;;;;-145.23;100.00;58621.06;5025608;28;20613;-53
2022/12/10 04:48:51;;;;;;;18.30;13.30;;;;;;;-145.23;100.00;58621.06;5024495;28;20737;-53
2022/12/10 04:51:18;;;;;;;16.20;11.90;;;;;;;-145.23;100.00;58621.06;5008564;28;20248;-53
2022/12/10 04:53:45;;;;;;;17.17;11.00;;;;;;;-145.23;100.00;58621.06;5011647;28;20236;-53
2022/12/10 04:56:11;;;;;;;18.27;12.27;;;;;;;-145.23;100.00;58621.06;5015244;28;20233;-52
2022/12/10 04:58:40;;;;;;;16.37;11.80;;;;;;;-145.23;100.00;58621.06;5003308;28;20749;-52
2022/12/10 05:01:09;;;;;;;14.70;11.37;;;;;;;-145.23;100.00;58621.06;5007455;28;20360;-53
2022/12/10 05:03:36;;;;;;;16.67;11.43;;;;;;;-145.23;100.00;58621.06;5005802;28;20299;-52
2022/12/10 05:06:04;;;;;;;17.40;11.50;;;;;;;-145.23;100.00;58621.06;5005687;28;20286;-52
2022/12/10 05:08:32;;;;;;;15.03;11.03;;;;;;;-145.23;100.00;58621.06;5015309;28;20234;-52
2022/12/10 05:11:01;;;;;;;15.03;10.47;;;;;;;-145.23;100.00;58621.06;5025817;28;20231;-53
2022/12/10 05:13:29;;;;;;;16.13;11.93;;;;;;;-145.23;100.00;58621.06;5023483;28;20241;-53
2022/12/10 05:15:57;;;;;;;16.47;10.80;;;;;;;-145.23;100.00;58621.06;5026392;28;20386;-53
2022/12/10 05:18:24;;;;;;;16.53;11.43;;;;;;;-145.23;100.00;58621.06;5027174;28;20293;-53
2022/12/10 05:20:51;;;;;;;17.30;11.23;;;;;;;-145.23;100.00;58621.06;5008907;28;20248;-53
2022/12/10 05:23:29;;;;;;;14.33;11.83;;;;;;;-145.23;100.00;58621.06;5008369;28;20248;-53
2022/12/10 05:26:03;;;;;;;14.33;11.43;;;;;;;-145.23;100.00;58621.06;5009862;28;20232;-53
2022/12/10 05:28:32;;;;;;;15.33;10.93;;;;;;;-145.23;100.00;58621.06;5003933;28;20348;-53
2022/12/10 05:31:00;;;;;;;17.10;11.20;;;;;;;-145.23;100.00;58621.06;5006840;28;20316;-54
2022/12/10 05:33:27;;;;;;;13.50;10.77;;;;;;;-145.23;100.00;58621.06;5011252;28;20247;-53
2022/12/10 05:35:56;;;;;;;14.53;10.37;;;;;;;-145.23;100.00;58621.06;5013607;28;20224;-53
2022/12/10 05:38:23;;;;;;;15.93;11.30;;;;;;;-145.23;100.00;58621.06;5004224;28;20244;-53
2022/12/10 05:40:50;;;;;;;15.20;10.20;;;;;;;-145.23;100.00;58621.06;5002655;28;20332;-52
2022/12/10 05:43:17;;;;;;;13.47;10.03;;;;;;;-145.23;100.00;58621.06;5002919;28;20240;-52
2022/12/10 05:45:44;;;;;;;14.40;10.37;;;;;;;-145.23;100.00;58621.06;5004981;28;20229;-52
2022/12/10 05:48:15;;;;;;;13.33;9.53;;;;;;;-145.23;100.00;58621.06;5002826;28;20336;-53
2022/12/10 05:50:42;;;;;;;13.63;9.97;;;;;;;-145.23;100.00;58621.06;5001964;28;20669;-53
2022/12/10 05:53:09;;;;;;;12.80;10.13;;;;;;;-145.23;100.00;58621.06;5003252;28;21843;-53
2022/12/10 05:55:36;;;;;;;13.13;9.70;;;;;;;-145.23;100.00;58621.06;5005167;28;20298;-54
2022/12/10 05:58:02;;;;;;;13.23;10.20;;;;;;;-145.23;100.00;58621.06;5005584;28;20283;-54
2022/12/10 06:00:29;;;;;;;16.50;10.77;;;;;;;-145.23;100.00;58621.06;5006967;28;20243;-54
2022/12/10 06:02:56;;;;;;;11.40;9.50;;;;;;;-145.23;100.00;58621.06;5011492;28;20322;-54
2022/12/10 06:05:24;;;;;;;11.50;8.97;;;;;;;-145.23;100.00;58621.06;5001830;28;20306;-53
2022/12/10 06:07:51;;;;;;;12.30;9.17;;;;;;;-145.23;100.00;58621.06;5003254;28;20236;-53
2022/12/10 06:10:18;;;;;;;12.33;9.93;;;;;;;-145.23;100.00;58621.06;5001580;28;20763;-53
2022/12/10 06:12:45;;;;;;;15.50;9.77;;;;;;;-145.23;100.00;58621.06;5003677;28;20244;-53
2022/12/10 06:15:12;;;;;;;11.73;9.47;;;;;;;-145.23;100.00;58621.06;5003018;28;20315;-53
2022/12/10 06:17:38;;;;;;;11.40;8.73;;;;;;;-145.23;100.00;58621.06;5004088;28;20250;-53
2022/12/10 06:20:06;;;;;;;13.20;9.87;;;;;;;-145.23;100.00;58621.06;5005066;28;20229;-53
2022/12/10 06:22:35;;;;;;;10.57;8.70;;;;;;;-145.23;100.00;58621.06;5001337;28;20724;-53
2022/12/10 06:25:02;;;;;;;13.57;10.07;;;;;;;-145.23;100.00;58621.06;5008078;28;20234;-53
2022/12/10 06:27:31;;;;;;;12.50;9.37;;;;;;;-145.23;100.00;58621.06;5002091;28;20282;-54
2022/12/10 06:29:58;;;;;;;10.53;9.00;;;;;;;-145.23;100.00;58621.06;4999048;28;20237;-53
2022/12/10 06:32:25;;;;;;;11.23;9.33;;;;;;;-145.23;100.00;58621.06;5015513;28;20240;-52
2022/12/10 06:34:52;;;;;;;11.27;9.13;;;;;;;-145.23;100.00;58621.06;5004304;28;20355;-54
2022/12/10 06:37:22;;;;;;;12.13;9.13;;;;;;;-145.23;100.00;58621.06;5006323;28;20244;-53
2022/12/10 06:39:53;;;;;;;13.80;9.87;;;;;;;-145.23;100.00;58621.06;5000759;28;20243;-53
2022/12/10 06:42:20;;;;;;;15.03;9.93;;;;;;;-145.23;100.00;58621.06;5005199;28;20240;-53
2022/12/10 06:44:47;;;;;;;11.13;8.97;;;;;;;-145.23;100.00;58621.06;5003744;28;20260;-53
2022/12/10 06:47:14;;;;;;;10.63;7.90;;;;;;;-145.23;100.00;58621.06;5001002;28;20451;-53
2022/12/10 06:49:41;;;;;;;12.67;9.50;;;;;;;-145.23;100.00;58621.06;5001430;28;20232;-52
2022/12/10 06:52:08;;;;;;;10.50;9.27;;;;;;;-145.23;100.00;58621.06;5002010;28;20882;-52
2022/12/10 06:54:35;;;;;;;10.67;8.87;;;;;;;-145.23;100.00;58621.06;5000143;28;20306;-53
2022/12/10 06:57:06;;;;;;;12.67;9.10;;;;;;;-145.23;100.00;58621.06;5003198;28;20232;-53
2022/12/10 06:59:33;;;;;;;12.77;10.20;;;;;;;-145.23;100.00;58621.06;5003444;28;20244;-53
2022/12/10 07:02:02;;;;;;;11.13;8.63;;;;;;;-145.23;100.00;58621.06;5001924;28;20235;-53
2022/12/10 07:04:29;;;;;;;10.27;8.20;;;;;;;-145.23;100.00;58621.06;5002126;28;20232;-53
2022/12/10 07:06:55;;;;;;;11.70;9.90;;;;;;;-145.23;100.00;58621.06;5011041;28;20298;-53
2022/12/10 07:09:25;;;;;;;9.83;8.70;;;;;;;-145.23;100.00;58621.06;5007843;28;20290;-54
2022/12/10 07:11:52;;;;;;;10.00;8.73;;;;;;;-145.23;100.00;58621.06;5003350;28;20372;-53
2022/12/10 07:14:21;;;;;;;11.57;9.23;;;;;;;-145.23;100.00;58621.06;5002255;28;20244;-52
2022/12/10 07:16:48;;;;;;;10.50;8.50;;;;;;;-145.23;100.00;58621.06;5003315;28;20244;-53
2022/12/10 07:19:15;;;;;;;11.40;7.97;;;;;;;-145.23;100.00;58621.06;5001954;28;20327;-52
2022/12/10 07:21:45;;;;;;;11.53;8.57;;;;;;;-145.23;100.00;58621.06;5000199;28;20860;-53
2022/12/10 07:24:15;;;;;;;10.30;8.73;;;;;;;-145.23;100.00;58621.06;4996658;28;20455;-52
2022/12/10 07:26:43;;;;;;;12.07;8.37;;;;;;;-145.23;100.00;58621.06;5003630;28;20603;-52
2022/12/10 07:29:14;;;;;;;11.50;8.73;;;;;;;-145.23;100.00;58621.06;5001358;28;20224;-53
2022/12/10 07:31:43;;;;;;;10.57;8.80;;;;;;;-145.23;100.00;58621.06;5000278;28;20286;-54
2022/12/10 07:34:11;;;;;;;10.77;9.03;;;;;;;-145.23;100.00;58621.06;5003537;28;20252;-52
2022/12/10 07:36:38;;;;;;;10.70;8.63;;;;;;;-145.23;100.00;58621.06;4996999;28;20225;-53
2022/12/10 07:39:06;;;;;;;11.87;8.10;;;;;;;-145.23;100.00;58621.06;5010720;28;20229;-54
2022/12/10 07:41:34;;;;;;;10.73;8.27;;;;;;;-145.23;100.00;58621.06;5009345;28;20229;-53
2022/12/10 07:44:01;;;;;;;10.13;9.00;;;;;;;-145.23;100.00;58621.06;5006158;28;20237;-54
2022/12/10 07:46:30;;;;;;;11.80;7.43;;;;;;;-145.23;100.00;58621.06;5004851;28;21066;-54
2022/12/10 07:49:01;;;;;;;10.97;9.17;;;;;;;-145.23;100.00;58621.06;5001993;28;20256;-55
2022/12/10 07:51:28;;;;;;;14.47;9.37;;;;;;;-145.23;100.00;58621.06;5022627;28;20238;-52
2022/12/10 07:53:55;;;;;;;10.47;8.93;;;;;;;-145.23;100.00;58621.06;5016916;28;20238;-53
2022/12/10 07:56:24;;;;;;;12.20;9.20;;;;;;;-145.23;100.00;58621.06;5022778;28;20233;-53
2022/12/10 07:58:51;;;;;;;10.73;8.63;;;;;;;-145.23;100.00;58621.06;5007847;28;20244;-53
2022/12/10 08:01:19;;;;;;;13.57;9.13;;;;;;;-145.23;100.00;58621.06;5006249;28;20225;-53
2022/12/10 08:03:46;;;;;;;9.83;8.67;;;;;;;-145.23;100.00;58621.06;5005468;28;20322;-54
2022/12/10 08:06:17;;;;;;;10.50;8.93;;;;;;;-145.23;100.00;58621.06;5006159;28;20231;-53
2022/12/10 08:08:44;;;;;;;10.30;8.80;;;;;;;-145.23;100.00;58621.06;5003996;28;20245;-54
2022/12/10 08:11:12;;;;;;;9.73;8.80;;;;;;;-145.23;100.00;58621.06;5005351;28;20699;-53
2022/12/10 08:13:39;;;;;;;10.67;9.33;;;;;;;-145.23;100.00;58621.06;5003861;28;20229;-53
2022/12/10 08:16:09;;;;;;;11.53;8.83;;;;;;;-145.23;100.00;58621.06;5006133;28;20228;-52
2022/12/10 08:18:36;;;;;;;12.33;10.07;;;;;;;-145.23;100.00;58621.06;5001399;28;20237;-53
2022/12/10 08:21:05;;;;;;;10.17;8.90;;;;;;;-145.23;100.00;58621.06;5005410;28;20228;-53
2022/12/10 08:23:34;;;;;;;13.77;10.17;;;;;;;-145.23;100.00;58621.06;5001174;28;20237;-53
2022/12/10 08:26:04;;;;;;;13.43;10.03;;;;;;;-145.23;100.00;58621.06;5016843;28;20256;-53
2022/12/10 08:28:31;;;;;;;11.60;8.83;;;;;;;-145.23;100.00;58621.06;5024914;28;20791;-53
2022/12/10 08:30:58;;;;;;;11.70;9.27;;;;;;;-145.23;100.00;58621.06;5000381;28;20239;-52
2022/12/10 08:33:26;;;;;;;13.47;10.77;;;;;;;-145.23;100.00;58621.06;5003609;28;20225;-52
2022/12/10 08:35:53;;;;;;;12.97;9.80;;;;;;;-145.23;100.00;58621.06;5001313;28;20906;-53
2022/12/10 08:38:20;;;;;;;10.73;9.37;;;;;;;-145.23;100.00;58621.06;4990225;28;21043;-53
2022/12/10 08:40:48;;;;;;;13.87;10.03;;;;;;;-145.23;100.00;58621.06;5003936;28;20236;-53
2022/12/10 08:43:15;;;;;;;10.80;9.47;;;;;;;-145.23;100.00;58621.06;5005086;28;20240;-53
2022/12/10 08:45:42;;;;;;;13.00;9.37;;;;;;;-145.23;100.00;58621.06;5003760;28;20244;-54
2022/12/10 08:48:09;;;;;;;11.03;9.27;;;;;;;-145.23;100.00;58621.06;5004316;28;20235;-53
2022/12/10 08:50:37;;;;;;;13.70;10.03;;;;;;;-145.23;100.00;58621.06;4998360;28;20243;-53
2022/12/10 08:53:04;;;;;;;10.23;9.10;;;;;;;-145.23;100.00;58621.06;4998832;28;20237;-52
2022/12/10 08:55:31;;;;;;;11.03;9.53;;;;;;;-145.23;100.00;58621.06;5004490;28;20260;-53
2022/12/10 08:57:59;;;;;;;13.70;9.63;;;;;;;-145.23;100.00;58621.06;5003364;28;20233;-52
2022/12/10 09:00:27;;;;;;;9.87;8.83;;;;;;;-145.23;100.00;58621.06;5007465;28;20228;-53
2022/12/10 09:02:54;;;;;;;10.57;9.47;;;;;;;-145.23;100.00;58621.06;5004557;28;20633;-54
2022/12/10 09:05:21;;;;;;;10.30;8.93;;;;;;;-145.23;100.00;58621.06;5000225;28;20239;-53
2022/12/10 09:07:48;;;;;;;10.43;9.10;;;;;;;-145.23;100.00;58621.06;5002544;28;20517;-52
2022/12/10 09:10:15;;;;;;;15.43;9.50;;;;;;;-145.23;100.00;58621.06;5002153;28;20221;-53
2022/12/10 09:12:43;;;;;;;11.83;8.90;;;;;;;-145.23;100.00;58621.06;5004080;28;20278;-54
2022/12/10 09:15:11;;;;;;;10.20;9.20;;;;;;;-145.23;100.00;58621.06;5003524;28;20888;-54
2022/12/10 09:17:38;;;;;;;11.97;9.70;;;;;;;-145.23;100.00;58621.06;5003450;28;20229;-52
2022/12/10 09:20:06;;;;;;;12.83;9.83;;;;;;;-145.23;100.00;58621.06;5005513;28;20315;-53
2022/12/10 09:22:36;;;;;;;14.40;9.93;;;;;;;-145.23;100.00;58621.06;5002674;28;20233;-53
2022/12/10 09:25:04;;;;;;;14.10;9.60;;;;;;;-145.23;100.00;58621.06;5001703;28;20660;-54
2022/12/10 09:27:31;;;;;;;13.43;9.00;;;;;;;-145.23;100.00;58621.06;5002661;28;20233;-54
2022/12/10 09:29:58;;;;;;;12.27;9.43;;;;;;;-145.23;100.00;58621.06;4999049;28;20233;-53
2022/12/10 09:32:27;;;;;;;14.57;10.00;;;;;;;-145.23;100.00;58621.06;5003412;28;20298;-52
2022/12/10 09:34:54;;;;;;;11.60;9.70;;;;;;;-145.23;100.00;58621.06;5002060;28;20238;-53
2022/12/10 09:37:21;;;;;;;10.80;9.67;;;;;;;-145.23;100.00;58621.06;5001696;28;20245;-53
2022/12/10 09:39:48;;;;;;;13.67;9.17;;;;;;;-145.23;100.00;58621.06;5002035;28;20228;-53
2022/12/10 09:42:27;;;;;;;11.83;9.60;;;;;;;-145.23;100.00;58621.06;5001242;28;20240;-52
2022/12/10 09:44:58;;;;;;;14.80;9.27;;;;;;;-145.23;100.00;58621.06;5004595;28;20707;-53
2022/12/10 09:47:30;;;;;;;13.83;9.63;;;;;;;-145.23;100.00;58621.06;5000135;28;20240;-53
2022/12/10 09:50:04;;;;;;;11.23;9.27;;;;;;;-145.23;100.00;58621.06;5005229;28;20239;-54
2022/12/10 09:52:37;;;;;;;15.20;10.37;;;;;;;-145.23;100.00;58621.06;5018650;28;20326;-53
2022/12/10 09:55:09;;;;;;;13.50;10.63;;;;;;;-145.23;100.00;58621.06;5024703;28;20221;-54
2022/12/10 09:57:37;;;;;;;12.93;9.40;;;;;;;-145.23;100.00;58621.06;5028338;28;20318;-53
2022/12/10 10:00:07;;;;;;;16.03;9.50;;;;;;;-145.23;100.00;58621.06;5028537;28;20223;-53
2022/12/10 10:02:36;;;;;;;13.50;12.10;;;;;;;-145.23;100.00;58621.06;5021130;28;20252;-53
2022/12/10 10:05:11;;;;;;;12.63;9.63;;;;;;;-145.23;100.00;58621.06;5023565;28;20228;-55
2022/12/10 10:07:40;;;;;;;12.97;10.30;;;;;;;-145.23;100.00;58621.06;5021481;28;20239;-52
2022/12/10 10:10:12;;;;;;;10.80;8.73;;;;;;;-145.23;100.00;58621.06;5022075;28;20231;-52
2022/12/10 10:12:40;;;;;;;10.03;9.03;;;;;;;-145.23;100.00;58621.06;5022554;28;20254;-52
2022/12/10 10:15:15;;;;;;;11.73;8.87;;;;;;;-145.23;100.00;58621.06;5023760;28;20260;-52
2022/12/10 10:17:46;;;;;;;10.30;9.07;;;;;;;-145.23;100.00;58621.06;5020433;28;20231;-54
2022/12/10 10:20:14;;;;;;;9.77;8.77;;;;;;;-145.23;100.00;58621.06;5017038;28;20221;-54
2022/12/10 10:22:42;;;;;;;16.07;9.07;;;;;;;-145.23;100.00;58621.06;5020920;28;20264;-53
2022/12/10 10:25:14;;;;;;;10.37;8.47;;;;;;;-145.23;100.00;58621.06;5021542;28;20312;-53
2022/12/10 10:27:41;;;;;;;11.83;8.97;;;;;;;-145.23;100.00;58621.06;5023361;28;20236;-53
2022/12/10 10:30:17;;;;;;;13.60;9.53;;;;;;;-145.23;100.00;58621.06;5019724;28;20271;-54
2022/12/10 10:32:51;;;;;;;11.17;9.60;;;;;;;-145.23;100.00;58621.06;5008962;28;20239;-53
2022/12/10 10:35:29;;;;;;;14.27;8.47;;;;;;;-145.23;100.00;58621.06;5022449;28;20228;-53
2022/12/10 10:38:01;;;;;;;10.83;9.20;;;;;;;-145.23;100.00;58621.06;5007406;28;20229;-54
2022/12/10 10:40:31;;;;;;;10.00;8.17;;;;;;;-145.23;100.00;58621.06;5008040;28;20232;-54
2022/12/10 10:42:59;;;;;;;11.57;8.83;;;;;;;-145.23;100.00;58621.06;5015174;28;20221;-54
2022/12/10 10:45:41;;;;;;;14.00;9.53;;;;;;;-145.23;100.00;58621.06;5004774;28;20318;-54
2022/12/10 10:48:13;;;;;;;11.20;9.50;;;;;;;-145.23;100.00;58621.06;5002510;28;20320;-53
2022/12/10 10:50:44;;;;;;;10.73;8.37;;;;;;;-145.23;100.00;58621.06;5002590;28;20319;-53
2022/12/10 10:53:42;;;;;;;11.97;9.60;;;;;;;-145.23;100.00;58621.06;5002569;28;20232;-52
2022/12/10 10:56:16;;;;;;;11.67;9.80;;;;;;;-145.23;100.00;58621.06;4998314;28;20235;-53
2022/12/10 10:58:53;;;;;;;12.80;9.67;;;;;;;-145.23;100.00;58621.06;5004763;28;20290;-53
2022/12/10 11:01:21;;;;;;;12.83;10.63;;;;;;;-145.23;100.00;58621.06;4999145;28;20235;-53
2022/12/10 11:03:50;;;;;;;12.57;9.80;;;;;;;-145.23;100.00;58621.06;4999774;28;20256;-54
2022/12/10 11:06:18;;;;;;;11.33;10.00;;;;;;;-145.23;100.00;58621.06;5001586;28;20590;-53
2022/12/10 11:08:48;;;;;;;11.80;8.63;;;;;;;-145.23;100.00;58621.06;5001224;28;20256;-53
2022/12/10 11:11:22;;;;;;;12.23;9.97;;;;;;;-145.23;100.00;58621.06;5000652;28;20877;-53
2022/12/10 11:13:49;;;;;;;10.90;9.23;;;;;;;-145.23;100.00;58621.06;5002427;28;20330;-53
2022/12/10 11:16:21;;;;;;;11.40;9.60;;;;;;;-145.23;100.00;58621.06;5003278;28;20792;-53